Time;durP1;ratioP1;P1;durP2;ratioP2;P2;SDS_P1;SDS_P2;PMS_P1;PMS_P2;Temp;Humidity;BMP_temperature;BMP_pressure;BME280_temperature;BME280_humidity;BME280_pressure;Samples;Min_cycle;Max_cycle;Signal;HPM_P1;HPM_P2
2023/01/08 00:04:08;;;;;;;5.13;3.90;;;;;;;;;;10326575;28;20206;-63
2023/01/08 00:09:09;;;;;;;8.00;5.37;;;;;;;;;;10326647;28;20784;-62
2023/01/08 00:14:09;;;;;;;8.43;6.43;;;;;;;;;;10326326;28;20233;-61
2023/01/08 00:19:10;;;;;;;8.43;5.80;;;;;;;;;;10327016;28;20255;-61
2023/01/08 00:24:10;;;;;;;7.33;5.17;;;;;;;;;;10325640;28;20206;-58
2023/01/08 00:29:10;;;;;;;7.80;5.73;;;;;;;;;;10326337;28;20221;-59
2023/01/08 00:34:11;;;;;;;8.33;6.77;;;;;;;;;;10325660;28;20611;-61
2023/01/08 00:39:11;;;;;;;9.63;5.30;;;;;;;;;;10326090;28;20221;-59
2023/01/08 00:44:11;;;;;;;9.90;6.67;;;;;;;;;;10325977;28;20210;-61
2023/01/08 00:49:11;;;;;;;8.43;5.40;;;;;;;;;;10325537;28;20787;-59
2023/01/08 00:54:12;;;;;;;8.50;5.33;;;;;;;;;;10323849;28;20303;-61
2023/01/08 00:59:12;;;;;;;7.00;5.57;;;;;;;;;;10324467;28;20201;-58
2023/01/08 01:04:13;;;;;;;8.17;5.80;;;;;;;;;;10324947;28;20208;-61
2023/01/08 01:09:14;;;;;;;6.07;4.97;;;;;;;;;;10328351;28;20948;-61
2023/01/08 01:14:14;;;;;;;6.67;4.13;;;;;;;;;;10332825;28;20229;-59
2023/01/08 01:19:15;;;;;;;7.97;5.47;;;;;;;;;;10333293;28;20196;-62
2023/01/08 01:24:15;;;;;;;7.00;4.33;;;;;;;;;;10331721;28;20302;-57
2023/01/08 01:29:15;;;;;;;8.27;5.40;;;;;;;;;;10332726;28;20217;-58
2023/01/08 01:34:15;;;;;;;4.70;3.33;;;;;;;;;;10331521;28;20212;-59
2023/01/08 01:39:16;;;;;;;7.77;5.30;;;;;;;;;;10332171;28;20432;-57
2023/01/08 01:44:34;;;;;;;7.70;5.40;;;;;;;;;;10331845;28;20218;-58
2023/01/08 01:49:35;;;;;;;5.93;4.63;;;;;;;;;;10331424;28;20221;-58
2023/01/08 01:54:35;;;;;;;7.43;5.53;;;;;;;;;;10329881;28;20210;-60
2023/01/08 01:59:35;;;;;;;11.37;5.70;;;;;;;;;;10329887;28;20239;-58
2023/01/08 02:04:36;;;;;;;6.70;5.03;;;;;;;;;;10329990;28;20460;-60
2023/01/08 02:09:52;;;;;;;7.57;5.27;;;;;;;;;;10330699;28;20480;-61
2023/01/08 02:14:58;;;;;;;6.30;5.10;;;;;;;;;;10329887;28;20487;-59
2023/01/08 02:20:05;;;;;;;7.00;5.27;;;;;;;;;;10330156;28;20198;-58
2023/01/08 02:25:10;;;;;;;10.57;5.80;;;;;;;;;;10329614;28;20209;-58
2023/01/08 02:30:10;;;;;;;8.93;6.07;;;;;;;;;;10330009;28;20229;-59
2023/01/08 02:35:11;;;;;;;9.10;7.37;;;;;;;;;;10329285;28;20213;-59
2023/01/08 02:40:19;;;;;;;11.40;7.13;;;;;;;;;;10329677;28;20197;-60
2023/01/08 02:45:43;;;;;;;11.70;9.40;;;;;;;;;;10329592;28;20214;-60
2023/01/08 02:50:45;;;;;;;13.87;8.60;;;;;;;;;;10328905;28;20237;-58
2023/01/08 02:55:48;;;;;;;10.87;7.50;;;;;;;;;;10327083;28;20707;-61
2023/01/08 03:00:49;;;;;;;14.07;8.37;;;;;;;;;;10328074;28;20193;-56
2023/01/08 03:05:52;;;;;;;13.40;8.40;;;;;;;;;;10326520;28;20209;-61
2023/01/08 03:10:55;;;;;;;10.03;6.10;;;;;;;;;;10327503;28;20221;-59
2023/01/08 03:15:57;;;;;;;9.23;6.17;;;;;;;;;;10326895;28;20238;-60
2023/01/08 03:20:59;;;;;;;15.10;8.73;;;;;;;;;;10327121;28;20205;-62
2023/01/08 03:26:00;;;;;;;11.10;6.67;;;;;;;;;;10327928;28;20209;-58
2023/01/08 03:31:01;;;;;;;12.87;9.40;;;;;;;;;;10359429;23;20279;-65
2023/01/08 03:36:02;;;;;;;11.03;6.97;;;;;;;;;;10367451;28;20304;-65
2023/01/08 03:41:04;;;;;;;11.73;8.53;;;;;;;;;;10367152;28;20204;-63
2023/01/08 03:46:08;;;;;;;12.37;8.30;;;;;;;;;;10367000;28;20243;-64
2023/01/08 03:51:09;;;;;;;11.17;8.53;;;;;;;;;;10367832;28;20232;-66
2023/01/08 03:56:09;;;;;;;10.63;6.23;;;;;;;;;;10365517;28;20200;-65
2023/01/08 04:01:09;;;;;;;11.87;7.67;;;;;;;;;;10367506;28;20287;-64
2023/01/08 04:06:09;;;;;;;12.00;7.33;;;;;;;;;;10360337;28;20201;-65
2023/01/08 04:11:09;;;;;;;10.53;7.33;;;;;;;;;;10359783;28;20228;-65
2023/01/08 04:16:09;;;;;;;10.93;7.20;;;;;;;;;;10359533;28;20283;-65
2023/01/08 04:21:10;;;;;;;11.23;6.33;;;;;;;;;;10359473;28;20217;-63
2023/01/08 04:26:10;;;;;;;9.97;6.17;;;;;;;;;;10360950;28;20276;-64
2023/01/08 04:31:10;;;;;;;8.03;5.17;;;;;;;;;;10359591;28;20229;-64
2023/01/08 04:36:10;;;;;;;9.07;6.83;;;;;;;;;;10359560;28;20719;-65
2023/01/08 04:41:10;;;;;;;10.07;6.73;;;;;;;;;;10359259;28;20224;-65
2023/01/08 04:46:11;;;;;;;10.47;7.17;;;;;;;;;;10358706;28;20193;-65
2023/01/08 04:51:11;;;;;;;8.23;6.30;;;;;;;;;;10359155;28;20287;-64
2023/01/08 04:56:11;;;;;;;12.57;9.83;;;;;;;;;;10357799;28;20189;-62
2023/01/08 05:01:13;;;;;;;12.13;8.43;;;;;;;;;;10359263;28;20213;-65
2023/01/08 05:06:13;;;;;;;11.37;6.13;;;;;;;;;;10365540;28;20189;-64
2023/01/08 05:11:13;;;;;;;11.93;8.23;;;;;;;;;;10365789;28;20707;-67
2023/01/08 05:16:14;;;;;;;12.25;8.40;;;;;;;;;;10364464;28;20194;-65
2023/01/08 05:21:14;;;;;;;8.80;6.17;;;;;;;;;;10365709;28;20205;-65
2023/01/08 05:26:15;;;;;;;10.60;7.83;;;;;;;;;;10364939;28;20683;-65
2023/01/08 05:31:15;;;;;;;9.23;6.53;;;;;;;;;;10365464;28;20538;-65
2023/01/08 05:36:16;;;;;;;12.83;8.43;;;;;;;;;;10364915;28;20569;-65
2023/01/08 05:41:16;;;;;;;12.20;7.60;;;;;;;;;;10365062;28;20216;-65
2023/01/08 05:46:16;;;;;;;11.67;8.17;;;;;;;;;;10364785;28;20194;-65
2023/01/08 05:51:16;;;;;;;11.47;8.60;;;;;;;;;;10364840;28;20309;-63
2023/01/08 05:56:16;;;;;;;13.97;7.63;;;;;;;;;;10368974;28;20193;-66
2023/01/08 06:01:17;;;;;;;12.70;7.60;;;;;;;;;;10371685;28;20217;-66
2023/01/08 06:06:17;;;;;;;10.63;6.80;;;;;;;;;;10371987;28;20201;-65
2023/01/08 06:11:17;;;;;;;12.87;7.27;;;;;;;;;;10371343;28;20231;-65
2023/01/08 06:16:19;;;;;;;11.60;7.77;;;;;;;;;;10371121;28;20284;-65
2023/01/08 06:21:19;;;;;;;11.07;7.47;;;;;;;;;;10372099;28;20244;-65
2023/01/08 06:26:20;;;;;;;11.00;7.17;;;;;;;;;;10370236;28;20281;-64
2023/01/08 06:31:20;;;;;;;11.70;7.63;;;;;;;;;;10371131;28;20237;-63
2023/01/08 06:36:20;;;;;;;12.70;7.87;;;;;;;;;;10370388;28;20197;-63
2023/01/08 06:41:20;;;;;;;10.90;6.87;;;;;;;;;;10370777;28;20197;-62
2023/01/08 06:46:20;;;;;;;12.37;6.63;;;;;;;;;;10369980;28;20190;-63
2023/01/08 06:51:20;;;;;;;15.13;9.53;;;;;;;;;;10370233;28;20479;-60
2023/01/08 06:56:21;;;;;;;14.37;8.33;;;;;;;;;;10369185;28;20675;-65
2023/01/08 07:01:21;;;;;;;16.07;10.33;;;;;;;;;;10369753;28;20243;-62
2023/01/08 07:06:22;;;;;;;15.53;9.87;;;;;;;;;;10368462;28;20255;-61
2023/01/08 07:11:22;;;;;;;13.30;7.63;;;;;;;;;;10369021;28;20264;-63
2023/01/08 07:16:22;;;;;;;17.57;10.47;;;;;;;;;;10369203;28;20207;-64
2023/01/08 07:21:22;;;;;;;16.77;10.50;;;;;;;;;;10369058;28;20213;-63
2023/01/08 07:26:22;;;;;;;19.95;11.57;;;;;;;;;;10367681;28;21003;-64
2023/01/08 07:31:23;;;;;;;16.97;11.83;;;;;;;;;;10369335;28;20320;-64
2023/01/08 07:36:23;;;;;;;19.20;11.30;;;;;;;;;;10368071;28;20448;-63
2023/01/08 07:41:23;;;;;;;20.33;10.23;;;;;;;;;;10368410;28;20296;-65
2023/01/08 07:46:24;;;;;;;18.30;10.73;;;;;;;;;;10361970;28;20185;-65
2023/01/08 07:51:24;;;;;;;12.03;7.07;;;;;;;;;;10366847;28;20476;-62
2023/01/08 07:56:24;;;;;;;13.27;7.77;;;;;;;;;;10367049;28;20260;-62
2023/01/08 08:01:25;;;;;;;11.30;7.00;;;;;;;;;;10367647;28;20285;-63
2023/01/08 08:06:25;;;;;;;12.67;7.33;;;;;;;;;;10367116;28;20208;-64
2023/01/08 08:11:25;;;;;;;14.15;7.03;;;;;;;;;;10366888;28;20224;-64
2023/01/08 08:16:26;;;;;;;14.47;8.07;;;;;;;;;;10366762;28;20197;-63
2023/01/08 08:21:28;;;;;;;14.83;8.73;;;;;;;;;;10366608;28;20478;-64
2023/01/08 08:26:28;;;;;;;11.07;7.03;;;;;;;;;;10366387;28;20283;-62
2023/01/08 08:31:28;;;;;;;11.90;8.17;;;;;;;;;;10366634;28;20324;-64
2023/01/08 08:36:29;;;;;;;11.33;7.40;;;;;;;;;;10366133;28;20256;-62
2023/01/08 08:41:29;;;;;;;15.10;8.53;;;;;;;;;;10366128;28;20259;-63
2023/01/08 08:46:29;;;;;;;18.43;10.63;;;;;;;;;;10366257;28;20690;-61
2023/01/08 08:51:29;;;;;;;14.37;9.10;;;;;;;;;;10365846;28;20225;-62
2023/01/08 08:56:29;;;;;;;14.60;9.00;;;;;;;;;;10365213;28;20722;-63
2023/01/08 09:01:30;;;;;;;12.77;7.50;;;;;;;;;;10366785;28;20283;-63
2023/01/08 09:06:30;;;;;;;9.37;6.70;;;;;;;;;;10364140;28;20177;-65
2023/01/08 09:11:31;;;;;;;11.20;6.20;;;;;;;;;;10365108;28;20479;-64
2023/01/08 09:16:31;;;;;;;12.80;8.63;;;;;;;;;;10364216;28;20276;-65
2023/01/08 09:21:32;;;;;;;10.03;6.80;;;;;;;;;;10364168;28;20209;-64
2023/01/08 09:26:32;;;;;;;10.27;6.50;;;;;;;;;;10364419;28;20284;-64
2023/01/08 09:31:32;;;;;;;9.50;6.27;;;;;;;;;;10404162;22;20244;-61
2023/01/08 09:36:32;;;;;;;8.03;6.40;;;;;;;;;;10402686;28;20189;-59
2023/01/08 09:41:35;;;;;;;9.00;5.67;;;;;;;;;;10417034;28;20270;-61
2023/01/08 09:46:35;;;;;;;12.83;7.67;;;;;;;;;;10417507;28;20195;-60
2023/01/08 09:51:36;;;;;;;9.90;6.87;;;;;;;;;;10421839;28;20737;-60
2023/01/08 09:56:37;;;;;;;10.70;7.73;;;;;;;;;;10429361;28;20184;-61
2023/01/08 10:01:38;;;;;;;10.03;6.63;;;;;;;;;;10429106;28;20765;-63
2023/01/08 10:06:39;;;;;;;9.57;6.97;;;;;;;;;;10415164;28;20439;-63
2023/01/08 10:11:43;;;;;;;7.20;4.33;;;;;;;;;;10370878;28;20563;-60
2023/01/08 10:16:46;;;;;;;13.83;7.77;;;;;;;;;;10369599;28;20189;-59
2023/01/08 10:21:46;;;;;;;8.33;5.13;;;;;;;;;;10370141;28;20710;-62
2023/01/08 10:26:47;;;;;;;9.47;6.07;;;;;;;;;;10387386;28;20196;-63
2023/01/08 10:31:49;;;;;;;9.30;6.83;;;;;;;;;;10410254;28;20236;-60
2023/01/08 10:36:51;;;;;;;7.60;5.37;;;;;;;;;;10410483;28;20197;-63
2023/01/08 10:41:52;;;;;;;7.77;4.63;;;;;;;;;;10409819;28;20201;-60
2023/01/08 10:46:54;;;;;;;11.83;6.37;;;;;;;;;;10406442;28;20718;-62
2023/01/08 10:51:55;;;;;;;9.27;5.87;;;;;;;;;;10405448;28;20240;-60
2023/01/08 10:56:55;;;;;;;10.80;4.90;;;;;;;;;;10405149;28;20193;-62
2023/01/08 11:01:56;;;;;;;8.60;4.87;;;;;;;;;;10407640;28;20216;-59
2023/01/08 11:06:59;;;;;;;10.10;6.40;;;;;;;;;;10408772;28;20275;-59
2023/01/08 11:12:00;;;;;;;11.47;5.83;;;;;;;;;;10409059;28;20220;-61
2023/01/08 11:17:07;;;;;;;9.77;6.07;;;;;;;;;;10409199;28;20647;-61
2023/01/08 11:22:18;;;;;;;8.20;5.53;;;;;;;;;;10408297;28;20219;-61
2023/01/08 11:27:23;;;;;;;7.53;4.50;;;;;;;;;;10408348;28;20188;-61
2023/01/08 11:32:23;;;;;;;29.97;17.07;;;;;;;;;;10407615;28;20330;-61
2023/01/08 11:37:34;;;;;;;89.60;36.23;;;;;;;;;;10408303;28;20188;-59
2023/01/08 11:42:53;;;;;;;11.10;6.53;;;;;;;;;;10407446;28;20644;-58
2023/01/08 11:47:53;;;;;;;51.90;30.83;;;;;;;;;;10407419;28;20696;-61
2023/01/08 11:53:18;;;;;;;15.90;8.40;;;;;;;;;;10406557;28;20215;-62
2023/01/08 11:58:24;;;;;;;30.60;18.43;;;;;;;;;;10406455;28;20701;-62
2023/01/08 12:03:41;;;;;;;21.27;12.93;;;;;;;;;;10406916;28;20220;-63
2023/01/08 12:08:42;;;;;;;21.17;14.30;;;;;;;;;;10406504;28;20243;-63
2023/01/08 12:13:50;;;;;;;12.27;7.80;;;;;;;;;;10405541;28;20602;-58
2023/01/08 12:18:56;;;;;;;8.60;4.83;;;;;;;;;;10406700;28;20196;-61
2023/01/08 12:23:56;;;;;;;8.77;6.13;;;;;;;;;;10406312;28;20220;-62
2023/01/08 12:29:12;;;;;;;10.00;6.23;;;;;;;;;;10405590;28;20220;-62
2023/01/08 12:34:19;;;;;;;7.77;5.33;;;;;;;;;;10405630;28;20244;-62
2023/01/08 12:39:27;;;;;;;5.77;3.10;;;;;;;;;;10406043;28;20227;-62
2023/01/08 12:44:28;;;;;;;9.77;5.90;;;;;;;;;;10405233;28;20204;-61
2023/01/08 12:49:31;;;;;;;8.57;5.33;;;;;;;;;;10405937;28;20209;-60
2023/01/08 12:54:53;;;;;;;11.30;5.23;;;;;;;;;;10405236;28;20290;-61
2023/01/08 13:00:13;;;;;;;10.30;6.53;;;;;;;;;;10404949;28;20188;-62
2023/01/08 13:05:16;;;;;;;12.23;6.80;;;;;;;;;;10392180;28;20211;-61
2023/01/08 13:10:25;;;;;;;11.87;6.80;;;;;;;;;;10413355;28;20236;-59
2023/01/08 13:15:27;;;;;;;8.40;5.63;;;;;;;;;;10413108;28;20189;-63
2023/01/08 13:20:28;;;;;;;10.63;6.00;;;;;;;;;;10413817;28;20694;-59
2023/01/08 13:25:30;;;;;;;9.00;6.40;;;;;;;;;;10412543;28;20177;-60
2023/01/08 13:30:38;;;;;;;8.77;5.50;;;;;;;;;;10412915;28;20327;-63
2023/01/08 13:35:38;;;;;;;13.60;7.73;;;;;;;;;;10412596;28;20193;-62
2023/01/08 13:40:44;;;;;;;18.30;8.03;;;;;;;;;;10412278;28;20213;-61
2023/01/08 13:45:52;;;;;;;16.97;6.87;;;;;;;;;;10411715;28;20271;-60
2023/01/08 13:50:52;;;;;;;17.53;7.20;;;;;;;;;;10412479;28;20334;-60
2023/01/08 13:55:52;;;;;;;14.70;7.30;;;;;;;;;;10411064;28;20205;-62
2023/01/08 14:00:54;;;;;;;14.23;7.00;;;;;;;;;;10411932;28;20895;-59
2023/01/08 14:06:04;;;;;;;14.80;6.57;;;;;;;;;;10411516;28;20184;-59
2023/01/08 14:11:04;;;;;;;15.33;8.53;;;;;;;;;;10411043;28;20220;-60
2023/01/08 14:16:05;;;;;;;14.03;7.50;;;;;;;;;;10410568;28;20193;-60
2023/01/08 14:21:05;;;;;;;11.90;7.53;;;;;;;;;;10411068;28;20458;-57
2023/01/08 14:26:07;;;;;;;11.57;6.83;;;;;;;;;;10410335;28;20200;-61
2023/01/08 14:31:18;;;;;;;11.77;6.90;;;;;;;;;;10410950;28;20549;-58
2023/01/08 14:36:19;;;;;;;10.80;6.67;;;;;;;;;;10410202;28;20193;-60
2023/01/08 14:42:40;;;;;;;10.40;6.63;;;;;;;;;;10410040;28;20690;-59
2023/01/08 14:46:52;;;;;;;11.17;5.80;;;;;;;;;;10409676;28;20197;-59
2023/01/08 14:51:53;;;;;;;12.73;8.10;;;;;;;;;;10409534;28;20212;-59
2023/01/08 14:56:56;;;;;;;14.03;7.30;;;;;;;;;;10408845;28;20188;-60
2023/01/08 15:01:58;;;;;;;21.77;11.17;;;;;;;;;;10410265;28;20263;-57
2023/01/08 15:07:06;;;;;;;18.53;9.80;;;;;;;;;;10409491;28;20207;-58
2023/01/08 15:12:27;;;;;;;14.20;7.87;;;;;;;;;;10410523;28;20702;-55
2023/01/08 15:17:28;;;;;;;15.13;7.17;;;;;;;;;;10410296;28;20181;-58
2023/01/08 15:22:29;;;;;;;8.53;5.27;;;;;;;;;;10409628;28;20590;-56
2023/01/08 15:27:30;;;;;;;8.70;5.50;;;;;;;;;;10408823;28;20199;-60
2023/01/08 15:32:35;;;;;;;11.40;6.17;;;;;;;;;;10439376;23;20248;-62
2023/01/08 15:37:36;;;;;;;9.90;5.63;;;;;;;;;;10409759;28;20271;-59
2023/01/08 15:47:55;;;;;;;7.40;5.13;;;;;;;;;;10393869;28;20699;-57
2023/01/08 15:52:56;;;;;;;15.80;8.30;;;;;;;;;;10367106;28;20206;-57
2023/01/08 15:57:56;;;;;;;12.40;7.37;;;;;;;;;;10367927;28;20259;-57
2023/01/08 16:02:58;;;;;;;12.87;9.33;;;;;;;;;;10367239;28;20275;-58
2023/01/08 16:07:58;;;;;;;6.77;4.87;;;;;;;;;;10367299;28;20247;-60
2023/01/08 16:12:59;;;;;;;12.80;9.37;;;;;;;;;;10367288;28;20287;-58
2023/01/08 16:18:00;;;;;;;14.00;7.23;;;;;;;;;;10367190;28;20663;-57
2023/01/08 16:23:00;;;;;;;13.13;8.20;;;;;;;;;;10372293;28;20307;-57
2023/01/08 16:28:01;;;;;;;8.70;6.23;;;;;;;;;;10407607;28;20656;-59
2023/01/08 16:33:01;;;;;;;21.53;11.67;;;;;;;;;;10407674;28;20236;-58
2023/01/08 16:38:01;;;;;;;15.50;11.03;;;;;;;;;;10407127;28;20192;-57
2023/01/08 16:43:01;;;;;;;13.27;8.53;;;;;;;;;;10406800;28;20302;-61
2023/01/08 16:48:01;;;;;;;13.83;9.70;;;;;;;;;;10407464;28;20286;-58
2023/01/08 16:53:02;;;;;;;26.70;16.98;;;;;;;;;;10406762;28;20200;-60
2023/01/08 16:58:03;;;;;;;16.73;10.37;;;;;;;;;;10406693;28;20188;-56
2023/01/08 17:03:04;;;;;;;12.43;7.07;;;;;;;;;;10406593;28;20622;-60
2023/01/08 17:08:04;;;;;;;12.03;8.33;;;;;;;;;;10406681;28;20266;-60
2023/01/08 17:13:05;;;;;;;9.37;6.10;;;;;;;;;;10406581;28;20228;-59
2023/01/08 17:18:05;;;;;;;15.20;9.17;;;;;;;;;;10406575;28;20193;-61
2023/01/08 17:23:05;;;;;;;16.30;8.80;;;;;;;;;;10405967;28;20216;-59
2023/01/08 17:28:05;;;;;;;14.10;9.47;;;;;;;;;;10407155;28;20204;-62
2023/01/08 17:33:05;;;;;;;11.43;7.17;;;;;;;;;;10405921;28;20232;-58
2023/01/08 17:38:05;;;;;;;16.43;10.73;;;;;;;;;;10406652;28;20267;-56
2023/01/08 17:43:06;;;;;;;12.77;9.47;;;;;;;;;;10405408;28;20702;-59
2023/01/08 17:48:07;;;;;;;10.93;8.33;;;;;;;;;;10406071;28;20323;-56
2023/01/08 17:53:07;;;;;;;12.83;9.07;;;;;;;;;;10411376;28;20273;-62
2023/01/08 17:58:07;;;;;;;11.70;7.53;;;;;;;;;;10413131;28;20426;-63
2023/01/08 18:03:07;;;;;;;12.77;8.97;;;;;;;;;;10413081;28;20208;-63
2023/01/08 18:08:07;;;;;;;9.67;6.80;;;;;;;;;;10412670;28;20578;-62
2023/01/08 18:13:08;;;;;;;8.30;5.27;;;;;;;;;;10412849;28;20211;-57
2023/01/08 18:18:08;;;;;;;12.63;7.77;;;;;;;;;;10412509;28;20188;-59
2023/01/08 18:23:08;;;;;;;11.97;8.23;;;;;;;;;;10412263;28;20574;-54
2023/01/08 18:28:08;;;;;;;10.43;6.00;;;;;;;;;;10412420;28;20224;-58
2023/01/08 18:33:08;;;;;;;15.20;9.93;;;;;;;;;;10410800;28;20236;-55
2023/01/08 18:38:14;;;;;;;12.37;9.20;;;;;;;;;;10412247;28;20204;-55
2023/01/08 18:43:14;;;;;;;13.83;9.40;;;;;;;;;;10411231;28;20209;-57
2023/01/08 18:48:14;;;;;;;11.03;6.67;;;;;;;;;;10411397;28;20220;-60
2023/01/08 18:53:14;;;;;;;13.50;8.20;;;;;;;;;;10411038;28;20686;-58
2023/01/08 18:58:15;;;;;;;13.00;8.50;;;;;;;;;;10410614;28;20699;-60
2023/01/08 19:03:15;;;;;;;7.53;5.47;;;;;;;;;;10410690;28;20209;-54
2023/01/08 19:08:15;;;;;;;12.10;7.30;;;;;;;;;;10411010;28;20585;-59
2023/01/08 19:13:15;;;;;;;12.70;8.50;;;;;;;;;;10409958;28;20243;-61
2023/01/08 19:18:15;;;;;;;10.53;7.17;;;;;;;;;;10410373;28;20216;-56
2023/01/08 19:23:16;;;;;;;16.37;11.33;;;;;;;;;;10409789;28;20200;-59
2023/01/08 19:28:16;;;;;;;17.00;9.13;;;;;;;;;;10409558;28;20582;-62
2023/01/08 19:33:16;;;;;;;14.40;8.83;;;;;;;;;;10408796;28;20545;-56
2023/01/08 19:38:17;;;;;;;16.57;10.70;;;;;;;;;;10415379;28;20208;-54
2023/01/08 19:48:36;;;;;;;16.90;9.37;;;;;;;;;;10409134;28;20243;-53
2023/01/08 19:53:36;;;;;;;15.67;10.00;;;;;;;;;;10407007;28;20291;-54
2023/01/08 19:58:37;;;;;;;14.73;9.03;;;;;;;;;;10407098;28;20193;-54
2023/01/08 20:03:37;;;;;;;10.43;5.87;;;;;;;;;;10407120;28;20212;-55
2023/01/08 20:08:37;;;;;;;13.55;8.40;;;;;;;;;;10407761;28;20224;-57
2023/01/08 20:13:38;;;;;;;9.60;6.10;;;;;;;;;;10404952;28;20211;-53
2023/01/08 20:18:38;;;;;;;11.73;8.10;;;;;;;;;;10407105;28;20655;-55
2023/01/08 20:23:38;;;;;;;13.37;8.87;;;;;;;;;;10410532;28;20277;-56
2023/01/08 20:28:39;;;;;;;12.45;6.88;;;;;;;;;;10422848;28;20244;-56
2023/01/08 20:33:40;;;;;;;12.77;8.87;;;;;;;;;;10425276;28;20235;-57
2023/01/08 20:38:41;;;;;;;19.33;13.13;;;;;;;;;;10415973;28;20197;-54
2023/01/08 20:43:41;;;;;;;20.43;10.07;;;;;;;;;;10405432;28;20205;-58
2023/01/08 20:48:42;;;;;;;23.30;12.47;;;;;;;;;;10406021;28;20575;-54
2023/01/08 20:53:42;;;;;;;19.60;10.90;;;;;;;;;;10405742;28;20216;-53
2023/01/08 20:58:44;;;;;;;18.63;11.50;;;;;;;;;;10405342;28;20200;-56
2023/01/08 21:03:44;;;;;;;19.20;11.47;;;;;;;;;;10405409;28;20695;-59
2023/01/08 21:08:46;;;;;;;22.60;13.67;;;;;;;;;;10406054;28;20224;-58
2023/01/08 21:13:46;;;;;;;20.53;12.47;;;;;;;;;;10404159;28;20212;-58
2023/01/08 21:18:46;;;;;;;19.77;12.63;;;;;;;;;;10405936;28;20188;-59
2023/01/08 21:23:47;;;;;;;18.67;10.23;;;;;;;;;;10405013;28;20217;-53
2023/01/08 21:28:48;;;;;;;22.43;13.03;;;;;;;;;;10412920;28;20212;-56
2023/01/08 21:33:48;;;;;;;15.97;10.03;;;;;;;;;;10419181;23;20248;-64
2023/01/08 21:38:49;;;;;;;14.83;9.40;;;;;;;;;;10412840;28;20196;-62
2023/01/08 21:49:08;;;;;;;15.23;8.63;;;;;;;;;;10412888;28;20227;-61
2023/01/08 21:54:08;;;;;;;18.80;10.37;;;;;;;;;;10412044;28;20694;-63
2023/01/08 21:59:08;;;;;;;17.50;11.10;;;;;;;;;;10400655;28;20579;-62
2023/01/08 22:04:08;;;;;;;16.50;10.43;;;;;;;;;;10405153;28;20254;-63
2023/01/08 22:09:09;;;;;;;15.13;8.30;;;;;;;;;;10409008;28;20204;-63
2023/01/08 22:14:09;;;;;;;18.83;11.27;;;;;;;;;;10386547;28;20759;-64
2023/01/08 22:19:09;;;;;;;16.20;9.80;;;;;;;;;;10373424;28;20189;-63
2023/01/08 22:24:09;;;;;;;15.10;9.27;;;;;;;;;;10382130;28;20209;-63
2023/01/08 22:29:10;;;;;;;20.07;11.97;;;;;;;;;;10402554;28;20227;-65
2023/01/08 22:34:15;;;;;;;13.27;7.37;;;;;;;;;;10411208;28;20289;-63
2023/01/08 22:39:16;;;;;;;13.00;9.17;;;;;;;;;;10402262;28;20283;-64
2023/01/08 22:44:16;;;;;;;14.40;8.57;;;;;;;;;;10406896;28;20687;-59
2023/01/08 22:49:16;;;;;;;17.30;10.27;;;;;;;;;;10390415;28;20223;-64
2023/01/08 22:54:16;;;;;;;13.80;9.17;;;;;;;;;;10388944;28;20217;-65
2023/01/08 22:59:17;;;;;;;13.03;9.30;;;;;;;;;;10402120;28;20185;-61
2023/01/08 23:04:17;;;;;;;15.30;10.43;;;;;;;;;;10385496;28;20221;-63
2023/01/08 23:09:17;;;;;;;12.97;7.73;;;;;;;;;;10368461;28;20312;-61
2023/01/08 23:14:17;;;;;;;14.37;9.13;;;;;;;;;;10368254;28;20216;-63
2023/01/08 23:19:17;;;;;;;12.37;8.70;;;;;;;;;;10368459;28;20193;-62
2023/01/08 23:24:18;;;;;;;15.13;9.80;;;;;;;;;;10368017;28;20217;-59
2023/01/08 23:29:18;;;;;;;11.37;7.43;;;;;;;;;;10368255;28;20220;-64
2023/01/08 23:34:18;;;;;;;11.70;8.10;;;;;;;;;;10367323;28;20603;-65
2023/01/08 23:39:18;;;;;;;14.03;8.90;;;;;;;;;;10367132;28;20300;-65
2023/01/08 23:44:19;;;;;;;11.37;7.23;;;;;;;;;;10367249;28;20216;-65
2023/01/08 23:49:19;;;;;;;11.93;7.87;;;;;;;;;;10366384;28;20486;-65
2023/01/08 23:54:19;;;;;;;14.60;9.47;;;;;;;;;;10375602;28;20262;-65
2023/01/08 23:59:19;;;;;;;14.27;8.93;;;;;;;;;;10407961;28;20239;-65
